Terminal Aerodrome Forecast
Issued by NWS

Home | Current Version | Previous Version | Text Only | Print | Product List | Glossary Off
Versions: 1 2 3 4 5 6 7 8 9 10 11 12 13

000
FTUS43 KMPX 271743
TAFRWF
TAF
KRWF 271743Z 2718/2818 24007KT P6SM OVC100
     FM280200 22006KT P6SM SCT250
     FM281100 25008KT P6SM SCT100
     FM281500 30013G21KT P6SM FEW050=

USA.gov is the U.S. government's official web portal to all federal, state and local government web resources and services.